createdAt,value
2019-04-21T00:02:01.257Z,60.00
2019-04-21T00:04:48.465Z,59.80
2019-04-21T00:07:25.080Z,59.70
2019-04-21T00:10:03.930Z,59.70
2019-04-21T00:12:31.475Z,59.80
2019-04-21T00:15:00.706Z,59.80
2019-04-21T00:17:23.121Z,60.30
2019-04-21T00:20:11.428Z,60.90
2019-04-21T00:22:41.701Z,60.90
2019-04-21T00:25:19.196Z,60.20
2019-04-21T00:27:51.606Z,59.90
2019-04-21T00:30:33.013Z,60.30
2019-04-21T00:32:52.490Z,60.70
2019-04-21T00:35:19.567Z,60.90
2019-04-21T00:38:08.272Z,61.80
2019-04-21T00:40:41.692Z,61.30
2019-04-21T00:43:11.766Z,61.30
2019-04-21T00:45:39.059Z,61.00
2019-04-21T00:48:24.038Z,61.50
2019-04-21T00:51:15.015Z,61.70
2019-04-21T00:53:51.498Z,62.20
2019-04-21T00:56:21.797Z,61.70
2019-04-21T00:58:56.092Z,61.80
2019-04-21T01:01:24.910Z,62.00
2019-04-21T01:04:02.235Z,61.70
2019-04-21T01:06:36.919Z,61.20
2019-04-21T01:09:03.742Z,61.50
2019-04-21T01:11:36.775Z,62.00
2019-04-21T01:14:16.614Z,62.10
2019-04-21T01:16:45.777Z,61.80
2019-04-21T01:19:18.244Z,62.20
2019-04-21T01:21:29.585Z,62.30
2019-04-21T01:24:07.817Z,62.80
2019-04-21T01:26:49.466Z,62.70
2019-04-21T01:29:27.756Z,63.10
2019-04-21T01:32:10.473Z,64.50
2019-04-21T01:34:39.110Z,64.80
2019-04-21T01:37:03.962Z,64.80
2019-04-21T01:39:48.519Z,64.80
2019-04-21T01:42:15.848Z,64.90
2019-04-21T01:44:54.872Z,64.60
2019-04-21T01:47:17.526Z,64.40
2019-04-21T01:49:47.614Z,64.60
2019-04-21T01:52:40.418Z,64.60
2019-04-21T01:55:18.416Z,64.60
2019-04-21T01:58:15.728Z,65.30
2019-04-21T02:00:59.983Z,65.70
2019-04-21T02:03:48.361Z,65.70
2019-04-21T02:06:11.317Z,65.70
2019-04-21T02:08:36.498Z,65.70
2019-04-21T02:11:16.994Z,65.60
2019-04-21T02:13:53.123Z,65.60
2019-04-21T02:16:20.204Z,65.70
2019-04-21T02:18:52.954Z,65.10
2019-04-21T02:21:17.884Z,65.30
2019-04-21T02:24:05.119Z,65.40
2019-04-21T02:26:37.557Z,65.50
2019-04-21T02:29:08.561Z,65.20
2019-04-21T02:31:45.205Z,65.50
2019-04-21T02:34:19.230Z,65.30
2019-04-21T02:37:17.190Z,65.00
2019-04-21T02:42:32.426Z,64.80
2019-04-21T02:44:37.637Z,65.10
2019-04-21T02:46:55.113Z,65.30
2019-04-21T02:50:00.340Z,65.40
2019-04-21T02:57:15.624Z,66.20
2019-04-21T03:00:11.425Z,65.90
2019-04-21T03:02:48.957Z,65.20
2019-04-21T03:05:48.819Z,65.90
2019-04-21T03:08:28.021Z,66.50
2019-04-21T03:10:53.543Z,66.70
2019-04-21T03:13:29.810Z,67.20
2019-04-21T03:18:32.533Z,66.90
2019-04-21T03:21:13.365Z,67.30
2019-04-21T03:23:54.898Z,68.00
2019-04-21T03:28:43.520Z,67.50
2019-04-21T03:31:57.573Z,67.10
2019-04-21T03:34:34.891Z,67.20
2019-04-21T03:41:33.155Z,68.40
2019-04-21T03:43:59.164Z,68.10
2019-04-21T03:49:14.857Z,68.20
2019-04-21T03:54:11.195Z,68.00
2019-04-21T03:56:59.077Z,67.90
2019-04-21T03:59:19.962Z,68.60
2019-04-21T04:05:05.682Z,68.90
2019-04-21T04:07:50.111Z,69.00
2019-04-21T04:10:13.982Z,69.10
2019-04-21T04:12:50.549Z,68.60
2019-04-21T04:18:00.091Z,68.70
2019-04-21T04:20:28.641Z,68.70
2019-04-21T04:23:02.784Z,69.00
2019-04-21T04:28:10.166Z,68.30
2019-04-21T04:30:54.238Z,68.20
2019-04-21T04:33:20.250Z,68.40
2019-04-21T04:48:45.203Z,68.50
2019-04-21T04:51:23.329Z,68.60
2019-04-21T04:53:47.213Z,68.80
2019-04-21T04:56:26.013Z,69.10
2019-04-21T04:59:19.640Z,69.60
2019-04-21T05:01:32.029Z,69.40
2019-04-21T05:11:44.328Z,69.20
2019-04-21T05:14:16.780Z,69.60
2019-04-21T05:19:14.900Z,70.00
2019-04-21T05:22:04.974Z,69.90
2019-04-21T05:24:13.530Z,70.20
2019-04-21T05:26:45.964Z,70.30
2019-04-21T05:29:18.411Z,70.30
2019-04-21T05:34:42.682Z,70.80
2019-04-21T05:37:47.396Z,70.80
2019-04-21T05:40:22.684Z,71.10
2019-04-21T05:43:03.326Z,71.20
2019-04-21T05:45:42.276Z,71.10
2019-04-21T05:50:47.921Z,71.70
2019-04-21T05:53:24.366Z,71.40
2019-04-21T05:56:01.725Z,72.50
2019-04-21T05:58:29.972Z,73.20
2019-04-21T06:03:47.661Z,73.10
2019-04-21T06:08:42.229Z,74.10
2019-04-21T06:11:28.988Z,75.50
2019-04-21T06:13:55.051Z,75.20
2019-04-21T06:16:40.722Z,75.60
2019-04-21T06:19:00.454Z,74.70
2019-04-21T06:21:35.963Z,75.10
2019-04-21T06:24:06.767Z,74.60
2019-04-21T06:29:09.141Z,73.80
2019-04-21T06:34:16.356Z,74.10
2019-04-21T06:37:04.342Z,73.90
2019-04-21T06:39:48.352Z,73.00
2019-04-21T06:42:07.738Z,71.70
2019-04-21T06:44:48.546Z,72.60
2019-04-21T06:47:15.529Z,72.10
2019-04-21T06:49:42.795Z,70.70
2019-04-21T06:52:44.705Z,70.00
2019-04-21T06:55:00.066Z,71.10
2019-04-21T06:57:28.744Z,70.10
2019-04-21T06:59:55.293Z,70.90
2019-04-21T07:05:24.703Z,67.90
2019-04-21T07:07:35.334Z,67.90
2019-04-21T07:10:10.292Z,67.20
2019-04-21T07:12:41.087Z,68.30
2019-04-21T07:15:19.229Z,67.60
2019-04-21T07:17:45.036Z,67.40
2019-04-21T07:20:21.748Z,66.70
2019-04-21T07:22:54.193Z,66.40
2019-04-21T07:25:32.660Z,66.90
2019-04-21T07:28:20.914Z,67.00
2019-04-21T07:30:38.032Z,65.30
2019-04-21T07:33:19.474Z,63.90
2019-04-21T07:35:38.242Z,63.40
2019-04-21T07:38:11.619Z,63.10
2019-04-21T07:40:43.026Z,62.90
2019-04-21T07:43:10.907Z,63.70
2019-04-21T07:45:44.423Z,63.50
2019-04-21T07:48:34.509Z,64.30
2019-04-21T07:51:15.437Z,64.00
2019-04-21T07:53:59.665Z,63.10
2019-04-21T07:56:09.368Z,62.50
2019-04-21T07:58:59.146Z,63.60
2019-04-21T08:01:32.141Z,62.20
2019-04-21T08:04:03.872Z,61.10
2019-04-21T08:06:44.490Z,59.80
2019-04-21T08:09:08.958Z,62.00
2019-04-21T08:11:38.657Z,59.80
2019-04-21T08:14:19.542Z,60.40
2019-04-21T08:16:53.882Z,59.70
2019-04-21T08:19:18.972Z,58.90
2019-04-21T08:21:57.551Z,58.70
2019-04-21T08:24:27.385Z,59.10
2019-04-21T08:27:05.062Z,56.50
2019-04-21T08:32:07.845Z,57.80
2019-04-21T08:34:43.243Z,55.10
2019-04-21T08:37:12.623Z,56.10
2019-04-21T08:39:55.025Z,55.80
2019-04-21T08:42:18.014Z,56.90
2019-04-21T08:44:53.047Z,57.70
2019-04-21T08:47:31.930Z,56.50
2019-04-21T08:50:00.334Z,56.40
2019-04-21T08:52:44.369Z,57.80
2019-04-21T08:55:12.193Z,57.10
2019-04-21T08:58:08.602Z,57.80
2019-04-21T09:00:44.528Z,58.30
2019-04-21T09:03:14.633Z,59.10
2019-04-21T09:05:54.014Z,57.60
2019-04-21T09:08:24.826Z,57.10
2019-04-21T09:10:53.085Z,59.90
2019-04-21T09:13:24.708Z,57.50
2019-04-21T09:15:57.988Z,57.40
2019-04-21T09:18:27.212Z,56.10
2019-04-21T09:21:11.017Z,56.60
2019-04-21T09:23:40.754Z,55.60
2019-04-21T09:26:14.118Z,56.50
2019-04-21T09:28:39.647Z,54.40
2019-04-21T09:31:04.231Z,56.30
2019-04-21T09:33:40.408Z,54.10
2019-04-21T09:36:09.706Z,52.70
2019-04-21T09:38:42.450Z,52.00
2019-04-21T09:41:16.401Z,53.50
2019-04-21T09:43:50.615Z,51.40
2019-04-21T09:46:20.769Z,49.80
2019-04-21T09:48:59.031Z,52.10
2019-04-21T09:51:25.984Z,52.30
2019-04-21T09:54:04.341Z,51.00
2019-04-21T09:56:40.685Z,52.90
2019-04-21T09:59:13.511Z,51.80
2019-04-21T10:01:49.109Z,48.90
2019-04-21T10:04:09.911Z,48.90
2019-04-21T10:06:43.028Z,50.20
2019-04-21T10:09:17.971Z,49.10
2019-04-21T10:11:48.156Z,50.00
2019-04-21T10:14:19.866Z,48.70
2019-04-21T10:17:00.332Z,49.90
2019-04-21T10:19:32.358Z,48.60
2019-04-21T10:22:05.958Z,50.10
2019-04-21T10:24:50.295Z,50.70
2019-04-21T10:27:21.659Z,51.20
2019-04-21T10:29:53.959Z,50.40
2019-04-21T10:32:25.626Z,50.50
2019-04-21T10:34:59.099Z,50.70
2019-04-21T10:37:42.606Z,51.30
2019-04-21T10:40:05.362Z,50.80
2019-04-21T10:42:37.339Z,50.70
2019-04-21T10:45:10.878Z,50.10
2019-04-21T10:47:43.071Z,50.00
2019-04-21T10:50:16.286Z,49.40
2019-04-21T10:53:04.930Z,50.40
2019-04-21T10:55:54.451Z,48.90
2019-04-21T10:58:26.529Z,49.20
2019-04-21T11:01:10.688Z,49.70
2019-04-21T11:04:18.193Z,47.60
2019-04-21T11:06:42.260Z,48.30
2019-04-21T11:09:14.004Z,48.90
2019-04-21T11:11:48.125Z,48.70
2019-04-21T11:14:21.006Z,48.60
2019-04-21T11:16:53.427Z,48.50
2019-04-21T11:19:26.292Z,48.80
2019-04-21T11:22:03.022Z,47.00
2019-04-21T11:24:35.067Z,46.80
2019-04-21T11:27:08.805Z,47.50
2019-04-21T11:29:41.352Z,46.00
2019-04-21T11:32:14.738Z,47.00
2019-04-21T11:34:47.193Z,45.90
2019-04-21T11:37:21.918Z,46.60
2019-04-21T11:40:00.165Z,46.20
2019-04-21T11:42:33.520Z,44.50
2019-04-21T11:45:06.324Z,47.20
2019-04-21T11:47:42.600Z,45.30
2019-04-21T11:50:14.957Z,45.70
2019-04-21T11:52:47.290Z,43.30
2019-04-21T11:55:20.579Z,44.60
2019-04-21T11:57:54.528Z,44.50
2019-04-21T12:00:25.411Z,43.30
2019-04-21T12:02:57.611Z,42.00
2019-04-21T12:05:29.808Z,42.90
2019-04-21T12:08:02.065Z,43.70
2019-04-21T12:10:34.025Z,41.80
2019-04-21T12:13:07.398Z,41.60
2019-04-21T12:15:38.951Z,43.20
2019-04-21T12:18:10.599Z,43.30
2019-04-21T12:20:43.120Z,41.90
2019-04-21T12:23:14.608Z,43.30
2019-04-21T12:25:49.307Z,41.20
2019-04-21T12:28:21.857Z,41.30
2019-04-21T12:30:54.155Z,43.90
2019-04-21T12:33:36.309Z,43.30
2019-04-21T12:36:09.430Z,42.20
2019-04-21T12:38:48.415Z,42.90
2019-04-21T12:41:14.874Z,40.80
2019-04-21T12:43:46.626Z,42.40
2019-04-21T12:46:18.099Z,42.60
2019-04-21T12:48:49.720Z,41.40
2019-04-21T12:51:21.962Z,43.80
2019-04-21T12:53:54.197Z,41.70
2019-04-21T12:56:25.821Z,41.90
2019-04-21T12:58:57.813Z,41.30
2019-04-21T13:01:30.747Z,39.90
2019-04-21T13:04:01.899Z,42.20
2019-04-21T13:06:33.844Z,42.00
2019-04-21T13:09:10.541Z,41.50
2019-04-21T13:11:41.301Z,42.60
2019-04-21T13:14:15.734Z,42.40
2019-04-21T13:16:47.813Z,42.20
2019-04-21T13:19:20.974Z,41.60
2019-04-21T13:21:53.996Z,41.10
2019-04-21T13:24:26.151Z,40.50
2019-04-21T13:26:59.845Z,40.70
2019-04-21T13:29:32.216Z,42.00
2019-04-21T13:32:12.603Z,40.60
2019-04-21T13:34:46.016Z,42.30
2019-04-21T13:37:19.391Z,41.60
2019-04-21T13:40:20.717Z,42.50
2019-04-21T13:42:42.010Z,42.30
2019-04-21T13:45:10.084Z,41.00
2019-04-21T13:47:42.783Z,42.00
2019-04-21T13:50:15.480Z,42.80
2019-04-21T13:52:48.934Z,40.20
2019-04-21T13:55:21.355Z,41.60
2019-04-21T13:57:52.617Z,39.50
2019-04-21T14:00:25.223Z,39.90
2019-04-21T14:02:58.735Z,41.80
2019-04-21T14:05:32.663Z,40.40
2019-04-21T14:08:05.068Z,40.60
2019-04-21T14:10:37.689Z,41.40
2019-04-21T14:13:10.294Z,42.50
2019-04-21T14:15:42.882Z,42.50
2019-04-21T14:18:16.266Z,40.50
2019-04-21T14:20:47.413Z,40.30
2019-04-21T14:23:28.586Z,41.40
2019-04-21T14:25:53.366Z,41.20
2019-04-21T14:28:26.047Z,40.10
2019-04-21T14:30:58.651Z,41.00
2019-04-21T14:33:32.059Z,40.30
2019-04-21T14:36:05.102Z,41.20
2019-04-21T14:38:36.711Z,41.70
2019-04-21T14:41:08.302Z,40.50
2019-04-21T14:43:40.240Z,41.10
2019-04-21T14:46:17.185Z,39.90
2019-04-21T14:49:09.139Z,40.00
2019-04-21T14:52:03.150Z,41.30
2019-04-21T14:54:48.974Z,41.40
2019-04-21T14:57:21.230Z,41.70
2019-04-21T14:59:53.104Z,42.60
2019-04-21T15:02:25.529Z,41.90
2019-04-21T15:04:57.834Z,40.90
2019-04-21T15:07:30.911Z,40.60
2019-04-21T15:10:11.785Z,41.10
2019-04-21T15:12:38.148Z,41.10
2019-04-21T15:15:11.768Z,41.00
2019-04-21T15:17:44.219Z,40.70
2019-04-21T15:20:17.589Z,41.00
2019-04-21T15:22:48.679Z,40.20
2019-04-21T15:25:21.935Z,40.40
2019-04-21T15:27:53.337Z,41.40
2019-04-21T15:30:24.788Z,40.20
2019-04-21T15:32:56.234Z,41.30
2019-04-21T15:35:28.999Z,40.40
2019-04-21T15:38:00.368Z,39.60
2019-04-21T15:40:40.158Z,41.40
2019-04-21T15:43:06.345Z,41.60
2019-04-21T15:45:39.027Z,42.20
2019-04-21T15:48:11.891Z,40.30
2019-04-21T15:50:44.113Z,39.90
2019-04-21T15:53:17.044Z,40.30
2019-04-21T15:56:13.004Z,39.60
2019-04-21T15:59:18.860Z,39.50
2019-04-21T16:02:10.546Z,40.60
2019-04-21T16:04:42.922Z,40.90
2019-04-21T16:07:14.127Z,40.70
2019-04-21T16:09:46.100Z,40.20
2019-04-21T16:12:17.871Z,42.20
2019-04-21T16:14:50.367Z,41.70
2019-04-21T16:17:23.426Z,41.80
2019-04-21T16:19:55.932Z,40.80
2019-04-21T16:22:28.669Z,40.50
2019-04-21T16:25:00.917Z,38.80
2019-04-21T16:27:33.222Z,40.10
2019-04-21T16:30:06.027Z,40.50
2019-04-21T16:32:38.324Z,39.90
2019-04-21T16:35:12.217Z,39.70
2019-04-21T16:37:43.617Z,40.60
2019-04-21T16:40:15.424Z,39.80
2019-04-21T16:42:48.002Z,39.80
2019-04-21T16:45:21.014Z,40.50
2019-04-21T16:47:55.127Z,40.70
2019-04-21T16:50:27.811Z,40.40
2019-04-21T16:53:06.099Z,39.90
2019-04-21T16:55:45.176Z,39.90
2019-04-21T16:58:36.723Z,40.70
2019-04-21T17:01:16.521Z,39.20
2019-04-21T17:03:46.427Z,39.60
2019-04-21T17:06:19.314Z,40.20
2019-04-21T17:08:52.671Z,39.70
2019-04-21T17:11:30.418Z,40.40
2019-04-21T17:13:58.264Z,40.60
2019-04-21T17:16:57.644Z,40.20
2019-04-21T17:19:13.619Z,39.50
2019-04-21T17:21:35.433Z,39.70
2019-04-21T17:24:08.342Z,41.20
2019-04-21T17:26:42.536Z,41.10
2019-04-21T17:29:12.869Z,40.60
2019-04-21T17:31:43.911Z,40.70
2019-04-21T17:34:20.124Z,41.00
2019-04-21T17:36:48.749Z,40.60
2019-04-21T17:39:20.819Z,39.40
2019-04-21T17:42:05.244Z,40.00
2019-04-21T17:44:27.842Z,41.40
2019-04-21T17:47:03.874Z,40.30
2019-04-21T17:49:32.953Z,41.60
2019-04-21T17:52:23.771Z,41.10
2019-04-21T17:55:14.664Z,42.10
2019-04-21T17:58:00.717Z,43.10
2019-04-21T18:00:50.839Z,42.90
2019-04-21T18:03:15.322Z,42.20
2019-04-21T18:05:39.214Z,41.80
2019-04-21T18:08:14.121Z,41.10
2019-04-21T18:10:39.199Z,42.50
2019-04-21T18:13:07.850Z,42.00
2019-04-21T18:15:51.069Z,42.70
2019-04-21T18:18:05.327Z,45.10
2019-04-21T18:20:40.079Z,45.40
2019-04-21T18:23:38.199Z,45.60
2019-04-21T18:26:01.957Z,47.50
2019-04-21T18:28:28.453Z,48.20
2019-04-21T18:31:06.897Z,48.80
2019-04-21T18:33:43.921Z,49.10
2019-04-21T18:36:34.954Z,49.50
2019-04-21T18:39:43.645Z,50.40
2019-04-21T18:42:26.516Z,50.20
2019-04-21T18:48:02.703Z,51.90
2019-04-21T18:50:47.845Z,51.80
2019-04-21T18:53:34.095Z,51.70
2019-04-21T18:55:55.712Z,53.10
2019-04-21T18:58:22.293Z,53.10
2019-04-21T19:01:04.641Z,53.70
2019-04-21T19:03:35.162Z,54.00
2019-04-21T19:06:08.027Z,54.60
2019-04-21T19:08:57.768Z,53.70
2019-04-21T19:11:25.169Z,54.30
2019-04-21T19:14:39.756Z,54.10
2019-04-21T19:22:13.584Z,54.70
2019-04-21T19:24:59.364Z,55.10
2019-04-21T19:27:18.850Z,54.80
2019-04-21T19:30:02.916Z,54.80
2019-04-21T19:32:25.314Z,55.40
2019-04-21T19:34:40.744Z,56.00
2019-04-21T19:37:15.438Z,56.50
2019-04-21T19:40:00.496Z,56.10
2019-04-21T19:42:30.697Z,56.40
2019-04-21T19:45:09.407Z,56.30
2019-04-21T19:47:44.481Z,55.30
2019-04-21T19:50:19.416Z,55.20
2019-04-21T19:52:40.927Z,55.90
2019-04-21T19:55:02.761Z,55.90
2019-04-21T19:57:36.477Z,56.20
2019-04-21T20:00:10.103Z,56.30
2019-04-21T20:02:42.792Z,57.30
2019-04-21T20:05:24.428Z,56.90
2019-04-21T20:08:03.626Z,57.70
2019-04-21T20:10:47.198Z,58.00
2019-04-21T20:13:22.272Z,58.10
2019-04-21T20:15:50.939Z,59.30
2019-04-21T20:18:15.223Z,58.60
2019-04-21T20:20:35.507Z,59.70
2019-04-21T20:23:14.973Z,58.70
2019-04-21T20:25:47.447Z,58.30
2019-04-21T20:28:27.141Z,59.40
2019-04-21T20:31:03.672Z,58.70
2019-04-21T20:38:35.958Z,59.00
2019-04-21T20:41:11.171Z,59.20
2019-04-21T20:43:45.572Z,59.20
2019-04-21T20:46:17.208Z,60.40
2019-04-21T20:48:52.277Z,59.80
2019-04-21T20:51:28.405Z,59.50
2019-04-21T20:53:56.543Z,59.70
2019-04-21T20:56:27.007Z,59.80
2019-04-21T20:59:08.041Z,60.20
2019-04-21T21:01:45.749Z,60.30
2019-04-21T21:04:09.054Z,60.20
2019-04-21T21:06:43.855Z,60.40
2019-04-21T21:09:14.186Z,60.50
2019-04-21T21:12:09.565Z,61.20
2019-04-21T21:14:25.208Z,60.60
2019-04-21T21:17:25.443Z,60.70
2019-04-21T21:19:34.825Z,60.70
2019-04-21T21:21:59.185Z,60.70
2019-04-21T21:24:41.900Z,61.20
2019-04-21T21:27:10.012Z,61.00
2019-04-21T21:29:47.044Z,61.50
2019-04-21T21:32:31.396Z,61.50
2019-04-21T21:34:49.760Z,61.30
2019-04-21T21:39:56.898Z,61.50
2019-04-21T21:42:11.840Z,61.40
2019-04-21T21:44:50.533Z,61.70
2019-04-21T21:47:32.139Z,61.70
2019-04-21T21:50:00.777Z,61.80
2019-04-21T21:52:36.744Z,61.70
2019-04-21T21:54:55.924Z,62.20
2019-04-21T21:57:28.626Z,62.00
2019-04-21T22:00:04.748Z,62.30
2019-04-21T22:02:42.622Z,62.40
2019-04-21T22:05:15.070Z,62.40
2019-04-21T22:07:42.500Z,62.30
2019-04-21T22:10:14.016Z,62.60
2019-04-21T22:12:53.855Z,62.60
2019-04-21T22:15:22.601Z,62.60
2019-04-21T22:18:07.410Z,62.10
2019-04-21T22:20:42.151Z,62.60
2019-04-21T22:23:04.074Z,63.00
2019-04-21T22:25:33.853Z,63.00
2019-04-21T22:28:05.116Z,63.10
2019-04-21T22:30:42.163Z,63.00
2019-04-21T22:33:13.772Z,62.90
2019-04-21T22:35:50.350Z,63.10
2019-04-21T22:38:31.045Z,63.10
2019-04-21T22:41:02.914Z,63.00
2019-04-21T22:43:30.477Z,63.30
2019-04-21T22:45:55.886Z,63.40
2019-04-21T22:48:28.948Z,63.30
2019-04-21T22:51:00.569Z,63.40
2019-04-21T22:53:36.278Z,63.40
2019-04-21T22:56:13.577Z,63.70
2019-04-21T22:58:42.253Z,64.10
2019-04-21T23:01:12.814Z,64.10
2019-04-21T23:03:47.841Z,64.00
2019-04-21T23:06:22.049Z,64.20
2019-04-21T23:08:51.238Z,64.40
2019-04-21T23:11:23.538Z,64.70
2019-04-21T23:14:04.102Z,65.40
2019-04-21T23:16:34.960Z,64.60
2019-04-21T23:19:22.619Z,64.50
2019-04-21T23:21:53.738Z,64.80
2019-04-21T23:24:33.016Z,65.10
2019-04-21T23:26:54.459Z,64.80
2019-04-21T23:29:43.744Z,64.80
2019-04-21T23:32:05.070Z,65.20
2019-04-21T23:34:26.933Z,65.40
2019-04-21T23:37:00.638Z,65.40
2019-04-21T23:39:30.486Z,65.60
2019-04-21T23:42:00.997Z,65.80
2019-04-21T23:44:39.197Z,65.50
2019-04-21T23:47:08.819Z,66.10
2019-04-21T23:49:49.576Z,65.90
2019-04-21T23:52:13.853Z,66.30
2019-04-21T23:54:45.169Z,66.40
2019-04-21T23:57:27.847Z,66.50
2019-04-21T23:59:55.114Z,66.70
